sensor_id;sensor_type;location;lat;lon;timestamp;temperature;humidity
15133;DHT22;7667;51.232;17.110;2023-03-01T00:01:40;-3.50;99.90
15133;DHT22;7667;51.232;17.110;2023-03-01T00:04:08;-3.50;99.90
15133;DHT22;7667;51.232;17.110;2023-03-01T00:06:36;-3.40;99.90
15133;DHT22;7667;51.232;17.110;2023-03-01T00:09:04;-3.60;99.90
15133;DHT22;7667;51.232;17.110;2023-03-01T00:11:33;-3.70;99.90
15133;DHT22;7667;51.232;17.110;2023-03-01T00:14:02;-3.70;99.90
15133;DHT22;7667;51.232;17.110;2023-03-01T00:16:37;-3.70;99.90
15133;DHT22;7667;51.232;17.110;2023-03-01T00:19:15;-3.70;99.90
15133;DHT22;7667;51.232;17.110;2023-03-01T00:21:44;-3.60;99.90
15133;DHT22;7667;51.232;17.110;2023-03-01T00:24:12;-3.60;99.90
15133;DHT22;7667;51.232;17.110;2023-03-01T00:26:39;-3.60;99.90
15133;DHT22;7667;51.232;17.110;2023-03-01T00:29:07;-3.70;99.90
15133;DHT22;7667;51.232;17.110;2023-03-01T00:31:35;-3.70;99.90
15133;DHT22;7667;51.232;17.110;2023-03-01T00:34:05;-3.70;99.90
15133;DHT22;7667;51.232;17.110;2023-03-01T00:36:36;-3.70;99.90
15133;DHT22;7667;51.232;17.110;2023-03-01T00:39:07;-3.90;99.90
15133;DHT22;7667;51.232;17.110;2023-03-01T00:41:37;-4.20;99.90
15133;DHT22;7667;51.232;17.110;2023-03-01T00:44:07;-4.10;99.90
15133;DHT22;7667;51.232;17.110;2023-03-01T00:46:34;-4.00;99.90
15133;DHT22;7667;51.232;17.110;2023-03-01T00:49:02;-4.00;99.90
15133;DHT22;7667;51.232;17.110;2023-03-01T00:51:31;-4.10;99.90
15133;DHT22;7667;51.232;17.110;2023-03-01T00:54:00;-4.20;99.90
15133;DHT22;7667;51.232;17.110;2023-03-01T00:56:29;-4.20;99.90
15133;DHT22;7667;51.232;17.110;2023-03-01T00:58:58;-4.20;99.90
15133;DHT22;7667;51.232;17.110;2023-03-01T01:01:28;-4.20;99.90
15133;DHT22;7667;51.232;17.110;2023-03-01T01:04:02;-4.20;99.90
15133;DHT22;7667;51.232;17.110;2023-03-01T01:06:40;-4.10;99.90
15133;DHT22;7667;51.232;17.110;2023-03-01T01:09:15;-4.00;99.90
15133;DHT22;7667;51.232;17.110;2023-03-01T01:11:48;-4.00;99.90
15133;DHT22;7667;51.232;17.110;2023-03-01T01:14:18;-3.90;99.90
15133;DHT22;7667;51.232;17.110;2023-03-01T01:16:46;-3.80;99.90
15133;DHT22;7667;51.232;17.110;2023-03-01T01:19:16;-3.80;99.90
15133;DHT22;7667;51.232;17.110;2023-03-01T01:21:43;-3.80;99.90
15133;DHT22;7667;51.232;17.110;2023-03-01T01:24:12;-3.80;99.90
15133;DHT22;7667;51.232;17.110;2023-03-01T01:26:40;-4.00;99.90
15133;DHT22;7667;51.232;17.110;2023-03-01T01:29:08;-4.10;99.90
15133;DHT22;7667;51.232;17.110;2023-03-01T01:31:36;-4.20;99.90
15133;DHT22;7667;51.232;17.110;2023-03-01T01:34:07;-4.30;99.90
15133;DHT22;7667;51.232;17.110;2023-03-01T01:36:37;-4.60;99.90
15133;DHT22;7667;51.232;17.110;2023-03-01T01:39:05;-4.70;99.90
15133;DHT22;7667;51.232;17.110;2023-03-01T01:41:32;-4.80;99.90
15133;DHT22;7667;51.232;17.110;2023-03-01T01:44:35;-4.70;99.90
15133;DHT22;7667;51.232;17.110;2023-03-01T01:47:11;-4.70;99.90
15133;DHT22;7667;51.232;17.110;2023-03-01T01:49:47;-4.90;99.90
15133;DHT22;7667;51.232;17.110;2023-03-01T01:55:03;-4.60;99.90
15133;DHT22;7667;51.232;17.110;2023-03-01T01:57:38;-4.50;99.90
15133;DHT22;7667;51.232;17.110;2023-03-01T02:00:22;-4.60;99.90
15133;DHT22;7667;51.232;17.110;2023-03-01T02:02:56;-4.60;99.90
15133;DHT22;7667;51.232;17.110;2023-03-01T02:06:00;-4.60;99.90
15133;DHT22;7667;51.232;17.110;2023-03-01T02:08:23;-4.50;99.90
15133;DHT22;7667;51.232;17.110;2023-03-01T02:10:54;-4.50;99.90
15133;DHT22;7667;51.232;17.110;2023-03-01T02:13:23;-4.40;99.90
15133;DHT22;7667;51.232;17.110;2023-03-01T02:15:51;-4.40;99.90
15133;DHT22;7667;51.232;17.110;2023-03-01T02:18:21;-4.30;99.90
15133;DHT22;7667;51.232;17.110;2023-03-01T02:21:09;-4.30;99.90
15133;DHT22;7667;51.232;17.110;2023-03-01T02:24:19;-4.10;99.90
15133;DHT22;7667;51.232;17.110;2023-03-01T02:27:29;-4.20;99.90
15133;DHT22;7667;51.232;17.110;2023-03-01T02:30:06;-4.50;99.90
15133;DHT22;7667;51.232;17.110;2023-03-01T02:32:35;-4.50;99.90
15133;DHT22;7667;51.232;17.110;2023-03-01T02:35:02;-4.60;99.90
15133;DHT22;7667;51.232;17.110;2023-03-01T02:37:35;-4.50;99.90
15133;DHT22;7667;51.232;17.110;2023-03-01T02:40:07;-4.40;99.90
15133;DHT22;7667;51.232;17.110;2023-03-01T02:42:49;-4.30;99.90
15133;DHT22;7667;51.232;17.110;2023-03-01T02:45:21;-4.40;99.90
15133;DHT22;7667;51.232;17.110;2023-03-01T02:47:48;-4.40;99.90
15133;DHT22;7667;51.232;17.110;2023-03-01T02:56:26;-4.60;99.90
15133;DHT22;7667;51.232;17.110;2023-03-01T02:58:54;-4.80;99.90
15133;DHT22;7667;51.232;17.110;2023-03-01T03:01:21;-4.70;99.90
15133;DHT22;7667;51.232;17.110;2023-03-01T03:03:49;-4.60;99.90
15133;DHT22;7667;51.232;17.110;2023-03-01T03:06:16;-4.70;99.90
15133;DHT22;7667;51.232;17.110;2023-03-01T03:08:44;-4.80;99.90
15133;DHT22;7667;51.232;17.110;2023-03-01T03:11:12;-4.70;99.90
15133;DHT22;7667;51.232;17.110;2023-03-01T03:13:39;-4.80;99.90
15133;DHT22;7667;51.232;17.110;2023-03-01T03:16:15;-4.70;99.90
15133;DHT22;7667;51.232;17.110;2023-03-01T03:18:43;-4.80;99.90
15133;DHT22;7667;51.232;17.110;2023-03-01T03:21:12;-4.90;99.90
15133;DHT22;7667;51.232;17.110;2023-03-01T03:23:40;-4.90;99.90
15133;DHT22;7667;51.232;17.110;2023-03-01T03:26:08;-4.80;99.90
15133;DHT22;7667;51.232;17.110;2023-03-01T03:28:37;-4.80;99.90
15133;DHT22;7667;51.232;17.110;2023-03-01T03:31:07;-4.60;99.90
15133;DHT22;7667;51.232;17.110;2023-03-01T03:33:35;-4.60;99.90
15133;DHT22;7667;51.232;17.110;2023-03-01T03:36:03;-4.60;99.90
15133;DHT22;7667;51.232;17.110;2023-03-01T03:38:31;-4.60;99.90
15133;DHT22;7667;51.232;17.110;2023-03-01T03:41:04;-4.70;99.90
15133;DHT22;7667;51.232;17.110;2023-03-01T03:43:36;-4.70;99.90
15133;DHT22;7667;51.232;17.110;2023-03-01T03:46:05;-4.70;99.90
15133;DHT22;7667;51.232;17.110;2023-03-01T03:48:36;-4.80;99.90
15133;DHT22;7667;51.232;17.110;2023-03-01T03:51:05;-4.80;99.90
15133;DHT22;7667;51.232;17.110;2023-03-01T03:53:33;-4.80;99.90
15133;DHT22;7667;51.232;17.110;2023-03-01T03:56:01;-5.00;99.90
15133;DHT22;7667;51.232;17.110;2023-03-01T03:58:28;-5.10;99.90
15133;DHT22;7667;51.232;17.110;2023-03-01T04:00:56;-5.10;99.90
15133;DHT22;7667;51.232;17.110;2023-03-01T04:03:26;-5.20;99.90
15133;DHT22;7667;51.232;17.110;2023-03-01T04:05:57;-5.10;99.90
15133;DHT22;7667;51.232;17.110;2023-03-01T04:08:26;-5.10;99.90
15133;DHT22;7667;51.232;17.110;2023-03-01T04:11:00;-5.20;99.90
15133;DHT22;7667;51.232;17.110;2023-03-01T04:13:48;-5.20;99.90
15133;DHT22;7667;51.232;17.110;2023-03-01T04:16:16;-5.20;99.90
15133;DHT22;7667;51.232;17.110;2023-03-01T04:18:45;-5.20;99.90
15133;DHT22;7667;51.232;17.110;2023-03-01T04:21:12;-5.20;99.90
15133;DHT22;7667;51.232;17.110;2023-03-01T04:23:40;-5.20;99.90
15133;DHT22;7667;51.232;17.110;2023-03-01T04:26:08;-5.10;99.90
15133;DHT22;7667;51.232;17.110;2023-03-01T04:28:40;-5.10;99.90
15133;DHT22;7667;51.232;17.110;2023-03-01T04:31:15;-5.00;99.90
15133;DHT22;7667;51.232;17.110;2023-03-01T04:33:55;-5.00;99.90
15133;DHT22;7667;51.232;17.110;2023-03-01T04:36:27;-4.90;99.90
15133;DHT22;7667;51.232;17.110;2023-03-01T04:38:56;-5.00;99.90
15133;DHT22;7667;51.232;17.110;2023-03-01T04:41:25;-4.90;99.90
15133;DHT22;7667;51.232;17.110;2023-03-01T04:43:52;-4.80;99.90
15133;DHT22;7667;51.232;17.110;2023-03-01T04:46:20;-4.80;99.90
15133;DHT22;7667;51.232;17.110;2023-03-01T04:48:49;-4.80;99.90
15133;DHT22;7667;51.232;17.110;2023-03-01T04:51:16;-4.80;99.90
15133;DHT22;7667;51.232;17.110;2023-03-01T04:53:45;-4.90;99.90
15133;DHT22;7667;51.232;17.110;2023-03-01T04:56:13;-4.90;99.90
15133;DHT22;7667;51.232;17.110;2023-03-01T04:58:41;-4.80;99.90
15133;DHT22;7667;51.232;17.110;2023-03-01T05:01:11;-4.90;99.90
15133;DHT22;7667;51.232;17.110;2023-03-01T05:03:43;-4.80;99.90
15133;DHT22;7667;51.232;17.110;2023-03-01T05:06:12;-4.70;99.90
15133;DHT22;7667;51.232;17.110;2023-03-01T05:08:40;-4.70;99.90
15133;DHT22;7667;51.232;17.110;2023-03-01T05:11:08;-4.80;99.90
15133;DHT22;7667;51.232;17.110;2023-03-01T05:13:38;-4.80;99.90
15133;DHT22;7667;51.232;17.110;2023-03-01T05:16:07;-4.90;99.90
15133;DHT22;7667;51.232;17.110;2023-03-01T05:18:39;-4.80;99.90
15133;DHT22;7667;51.232;17.110;2023-03-01T05:21:12;-4.80;99.90
15133;DHT22;7667;51.232;17.110;2023-03-01T05:23:43;-4.90;99.90
15133;DHT22;7667;51.232;17.110;2023-03-01T05:26:12;-4.80;99.90
15133;DHT22;7667;51.232;17.110;2023-03-01T05:28:54;-4.80;99.90
15133;DHT22;7667;51.232;17.110;2023-03-01T05:31:27;-4.90;99.90
15133;DHT22;7667;51.232;17.110;2023-03-01T05:33:55;-5.10;99.90
15133;DHT22;7667;51.232;17.110;2023-03-01T05:36:22;-5.10;99.90
15133;DHT22;7667;51.232;17.110;2023-03-01T05:38:49;-4.90;99.90
15133;DHT22;7667;51.232;17.110;2023-03-01T05:41:17;-4.90;99.90
15133;DHT22;7667;51.232;17.110;2023-03-01T05:43:44;-4.90;99.90
15133;DHT22;7667;51.232;17.110;2023-03-01T05:46:12;-4.90;99.90
15133;DHT22;7667;51.232;17.110;2023-03-01T05:48:42;-5.00;99.90
15133;DHT22;7667;51.232;17.110;2023-03-01T05:51:10;-5.00;99.90
15133;DHT22;7667;51.232;17.110;2023-03-01T05:53:39;-5.10;99.90
15133;DHT22;7667;51.232;17.110;2023-03-01T05:56:06;-5.10;99.90
15133;DHT22;7667;51.232;17.110;2023-03-01T05:58:34;-5.00;99.90
15133;DHT22;7667;51.232;17.110;2023-03-01T06:01:02;-5.00;99.90
15133;DHT22;7667;51.232;17.110;2023-03-01T06:03:29;-4.90;99.90
15133;DHT22;7667;51.232;17.110;2023-03-01T06:05:57;-4.90;99.90
15133;DHT22;7667;51.232;17.110;2023-03-01T06:08:25;-5.00;99.90
15133;DHT22;7667;51.232;17.110;2023-03-01T06:10:54;-5.20;99.90
15133;DHT22;7667;51.232;17.110;2023-03-01T06:13:22;-5.40;99.90
15133;DHT22;7667;51.232;17.110;2023-03-01T06:15:50;-5.50;99.90
15133;DHT22;7667;51.232;17.110;2023-03-01T06:18:19;-5.40;99.90
15133;DHT22;7667;51.232;17.110;2023-03-01T06:20:53;-5.30;99.90
15133;DHT22;7667;51.232;17.110;2023-03-01T06:23:22;-5.10;99.90
15133;DHT22;7667;51.232;17.110;2023-03-01T06:25:50;-5.00;99.90
15133;DHT22;7667;51.232;17.110;2023-03-01T06:28:18;-4.80;99.90
15133;DHT22;7667;51.232;17.110;2023-03-01T06:30:46;-4.70;99.90
15133;DHT22;7667;51.232;17.110;2023-03-01T06:33:13;-4.60;99.90
15133;DHT22;7667;51.232;17.110;2023-03-01T06:35:41;-4.50;99.90
15133;DHT22;7667;51.232;17.110;2023-03-01T06:38:09;-4.50;99.90
15133;DHT22;7667;51.232;17.110;2023-03-01T06:40:36;-4.50;99.90
15133;DHT22;7667;51.232;17.110;2023-03-01T06:43:04;-4.60;99.90
15133;DHT22;7667;51.232;17.110;2023-03-01T06:45:31;-4.60;99.90
15133;DHT22;7667;51.232;17.110;2023-03-01T06:48:07;-4.40;99.90
15133;DHT22;7667;51.232;17.110;2023-03-01T06:50:35;-4.20;99.90
15133;DHT22;7667;51.232;17.110;2023-03-01T06:53:04;-4.20;99.90
15133;DHT22;7667;51.232;17.110;2023-03-01T06:55:32;-4.10;99.90
15133;DHT22;7667;51.232;17.110;2023-03-01T06:58:01;-4.20;99.90
15133;DHT22;7667;51.232;17.110;2023-03-01T07:00:29;-4.30;99.90
15133;DHT22;7667;51.232;17.110;2023-03-01T07:03:01;-4.20;99.90
15133;DHT22;7667;51.232;17.110;2023-03-01T07:05:30;-3.90;99.90
15133;DHT22;7667;51.232;17.110;2023-03-01T07:07:57;-3.70;99.90
15133;DHT22;7667;51.232;17.110;2023-03-01T07:10:25;-3.50;99.90
15133;DHT22;7667;51.232;17.110;2023-03-01T07:12:59;-3.50;99.90
15133;DHT22;7667;51.232;17.110;2023-03-01T07:15:28;-3.40;99.90
15133;DHT22;7667;51.232;17.110;2023-03-01T07:17:56;-3.20;99.90
15133;DHT22;7667;51.232;17.110;2023-03-01T07:20:23;-3.10;99.90
15133;DHT22;7667;51.232;17.110;2023-03-01T07:22:53;-2.90;99.90
15133;DHT22;7667;51.232;17.110;2023-03-01T07:25:21;-2.70;99.90
15133;DHT22;7667;51.232;17.110;2023-03-01T07:27:53;-2.60;99.90
15133;DHT22;7667;51.232;17.110;2023-03-01T07:30:22;-2.40;99.90
15133;DHT22;7667;51.232;17.110;2023-03-01T07:32:53;-2.40;99.90
15133;DHT22;7667;51.232;17.110;2023-03-01T07:35:26;-2.30;99.90
15133;DHT22;7667;51.232;17.110;2023-03-01T07:37:54;-2.20;99.90
15133;DHT22;7667;51.232;17.110;2023-03-01T07:40:21;-2.20;99.90
15133;DHT22;7667;51.232;17.110;2023-03-01T07:42:49;-2.10;99.90
15133;DHT22;7667;51.232;17.110;2023-03-01T07:45:17;-2.00;99.90
15133;DHT22;7667;51.232;17.110;2023-03-01T07:47:44;-2.00;99.90
15133;DHT22;7667;51.232;17.110;2023-03-01T07:50:12;-1.90;99.90
15133;DHT22;7667;51.232;17.110;2023-03-01T07:52:40;-1.70;99.90
15133;DHT22;7667;51.232;17.110;2023-03-01T07:55:08;-1.70;99.90
15133;DHT22;7667;51.232;17.110;2023-03-01T07:57:35;-1.60;99.90
15133;DHT22;7667;51.232;17.110;2023-03-01T08:00:03;-1.50;99.90
15133;DHT22;7667;51.232;17.110;2023-03-01T08:02:31;-1.40;99.90
15133;DHT22;7667;51.232;17.110;2023-03-01T08:04:59;-1.20;99.90
15133;DHT22;7667;51.232;17.110;2023-03-01T08:07:26;-1.00;99.90
15133;DHT22;7667;51.232;17.110;2023-03-01T08:09:54;-0.80;99.90
15133;DHT22;7667;51.232;17.110;2023-03-01T08:12:21;-0.70;99.90
15133;DHT22;7667;51.232;17.110;2023-03-01T08:14:49;-0.70;99.90
15133;DHT22;7667;51.232;17.110;2023-03-01T08:17:16;-0.60;99.90
15133;DHT22;7667;51.232;17.110;2023-03-01T08:19:44;-0.60;99.90
15133;DHT22;7667;51.232;17.110;2023-03-01T08:22:12;-0.60;99.90
15133;DHT22;7667;51.232;17.110;2023-03-01T08:24:39;-0.50;99.90
15133;DHT22;7667;51.232;17.110;2023-03-01T08:27:07;-0.40;99.90
15133;DHT22;7667;51.232;17.110;2023-03-01T08:29:34;-0.30;99.90
15133;DHT22;7667;51.232;17.110;2023-03-01T08:32:02;-0.20;99.90
15133;DHT22;7667;51.232;17.110;2023-03-01T08:34:30;-0.10;99.90
15133;DHT22;7667;51.232;17.110;2023-03-01T08:36:58;-0.10;99.90
15133;DHT22;7667;51.232;17.110;2023-03-01T08:39:26;-0.10;99.90
15133;DHT22;7667;51.232;17.110;2023-03-01T08:41:54;0.00;99.90
15133;DHT22;7667;51.232;17.110;2023-03-01T08:44:21;0.10;99.90
15133;DHT22;7667;51.232;17.110;2023-03-01T08:46:50;0.10;99.90
15133;DHT22;7667;51.232;17.110;2023-03-01T08:49:20;0.10;99.90
15133;DHT22;7667;51.232;17.110;2023-03-01T08:51:47;0.00;99.90
15133;DHT22;7667;51.232;17.110;2023-03-01T08:54:18;0.20;99.90
15133;DHT22;7667;51.232;17.110;2023-03-01T08:56:47;0.20;99.90
15133;DHT22;7667;51.232;17.110;2023-03-01T08:59:17;0.40;99.90
15133;DHT22;7667;51.232;17.110;2023-03-01T09:01:45;0.80;99.90
15133;DHT22;7667;51.232;17.110;2023-03-01T09:04:14;1.10;99.90
15133;DHT22;7667;51.232;17.110;2023-03-01T09:06:43;1.20;99.90
15133;DHT22;7667;51.232;17.110;2023-03-01T09:09:16;1.40;99.90
15133;DHT22;7667;51.232;17.110;2023-03-01T09:11:45;1.60;99.90
15133;DHT22;7667;51.232;17.110;2023-03-01T09:14:14;1.80;99.90
15133;DHT22;7667;51.232;17.110;2023-03-01T09:16:42;1.70;99.90
15133;DHT22;7667;51.232;17.110;2023-03-01T09:19:11;1.90;99.90
15133;DHT22;7667;51.232;17.110;2023-03-01T09:21:39;1.90;99.90
15133;DHT22;7667;51.232;17.110;2023-03-01T09:24:13;2.00;99.90
15133;DHT22;7667;51.232;17.110;2023-03-01T09:26:42;2.10;99.90
15133;DHT22;7667;51.232;17.110;2023-03-01T09:29:09;2.10;99.90
15133;DHT22;7667;51.232;17.110;2023-03-01T09:31:37;2.10;99.90
15133;DHT22;7667;51.232;17.110;2023-03-01T09:34:06;2.30;99.90
15133;DHT22;7667;51.232;17.110;2023-03-01T09:36:34;2.50;99.90
15133;DHT22;7667;51.232;17.110;2023-03-01T09:39:03;2.70;99.90
15133;DHT22;7667;51.232;17.110;2023-03-01T09:41:59;2.90;99.90
15133;DHT22;7667;51.232;17.110;2023-03-01T09:47:01;3.50;99.90
15133;DHT22;7667;51.232;17.110;2023-03-01T09:49:32;3.60;99.90
15133;DHT22;7667;51.232;17.110;2023-03-01T09:52:21;3.70;99.90
15133;DHT22;7667;51.232;17.110;2023-03-01T09:55:00;3.50;99.90
15133;DHT22;7667;51.232;17.110;2023-03-01T10:00:47;2.50;99.90
15133;DHT22;7667;51.232;17.110;2023-03-01T10:03:36;2.30;99.90
15133;DHT22;7667;51.232;17.110;2023-03-01T10:06:25;2.20;99.90
15133;DHT22;7667;51.232;17.110;2023-03-01T10:09:14;2.10;99.90
15133;DHT22;7667;51.232;17.110;2023-03-01T10:11:46;2.20;99.90
15133;DHT22;7667;51.232;17.110;2023-03-01T10:14:43;2.80;99.90
15133;DHT22;7667;51.232;17.110;2023-03-01T10:17:43;3.30;99.90
15133;DHT22;7667;51.232;17.110;2023-03-01T10:20:22;3.90;99.90
15133;DHT22;7667;51.232;17.110;2023-03-01T10:22:52;4.00;99.90
15133;DHT22;7667;51.232;17.110;2023-03-01T10:25:44;3.60;99.90
15133;DHT22;7667;51.232;17.110;2023-03-01T10:31:44;2.70;99.90
15133;DHT22;7667;51.232;17.110;2023-03-01T10:34:16;2.50;99.90
15133;DHT22;7667;51.232;17.110;2023-03-01T10:36:52;2.50;99.90
15133;DHT22;7667;51.232;17.110;2023-03-01T10:39:56;2.60;99.90
15133;DHT22;7667;51.232;17.110;2023-03-01T10:43:04;3.10;99.90
15133;DHT22;7667;51.232;17.110;2023-03-01T10:50:36;3.20;99.90
15133;DHT22;7667;51.232;17.110;2023-03-01T10:53:32;3.20;99.90
15133;DHT22;7667;51.232;17.110;2023-03-01T10:56:14;3.20;99.90
15133;DHT22;7667;51.232;17.110;2023-03-01T10:58:59;3.40;99.90
15133;DHT22;7667;51.232;17.110;2023-03-01T11:01:32;3.80;99.90
15133;DHT22;7667;51.232;17.110;2023-03-01T11:06:34;4.30;99.90
15133;DHT22;7667;51.232;17.110;2023-03-01T11:09:17;4.20;99.90
15133;DHT22;7667;51.232;17.110;2023-03-01T11:11:52;3.80;99.90
15133;DHT22;7667;51.232;17.110;2023-03-01T11:14:23;3.50;99.90
15133;DHT22;7667;51.232;17.110;2023-03-01T11:17:02;3.40;99.90
15133;DHT22;7667;51.232;17.110;2023-03-01T11:19:32;3.30;99.90
15133;DHT22;7667;51.232;17.110;2023-03-01T11:22:13;3.40;99.90
15133;DHT22;7667;51.232;17.110;2023-03-01T11:24:48;3.50;99.90
15133;DHT22;7667;51.232;17.110;2023-03-01T11:27:39;3.60;99.90
15133;DHT22;7667;51.232;17.110;2023-03-01T11:30:27;3.70;99.90
15133;DHT22;7667;51.232;17.110;2023-03-01T11:33:21;3.70;99.90
15133;DHT22;7667;51.232;17.110;2023-03-01T11:36:43;3.60;99.90
15133;DHT22;7667;51.232;17.110;2023-03-01T11:38:52;3.60;99.90
15133;DHT22;7667;51.232;17.110;2023-03-01T11:41:25;3.80;99.90
15133;DHT22;7667;51.232;17.110;2023-03-01T11:49:23;4.70;99.90
15133;DHT22;7667;51.232;17.110;2023-03-01T12:04:51;4.90;99.90
15133;DHT22;7667;51.232;17.110;2023-03-01T12:10:29;5.60;99.90
15133;DHT22;7667;51.232;17.110;2023-03-01T12:19:21;5.90;95.30
15133;DHT22;7667;51.232;17.110;2023-03-01T12:51:40;7.90;85.80
15133;DHT22;7667;51.232;17.110;2023-03-01T12:54:28;8.40;82.10
15133;DHT22;7667;51.232;17.110;2023-03-01T12:57:02;8.40;80.90
15133;DHT22;7667;51.232;17.110;2023-03-01T13:00:02;8.00;81.30
15133;DHT22;7667;51.232;17.110;2023-03-01T13:11:28;8.10;80.10
15133;DHT22;7667;51.232;17.110;2023-03-01T13:16:53;8.40;80.60
15133;DHT22;7667;51.232;17.110;2023-03-01T13:19:24;8.60;77.20
15133;DHT22;7667;51.232;17.110;2023-03-01T13:21:54;8.10;78.50
15133;DHT22;7667;51.232;17.110;2023-03-01T13:24:29;7.70;80.90
15133;DHT22;7667;51.232;17.110;2023-03-01T13:29:47;9.80;74.60
15133;DHT22;7667;51.232;17.110;2023-03-01T13:37:42;10.20;69.80
15133;DHT22;7667;51.232;17.110;2023-03-01T13:42:49;10.70;69.50
15133;DHT22;7667;51.232;17.110;2023-03-01T13:45:41;10.90;67.00
15133;DHT22;7667;51.232;17.110;2023-03-01T13:51:09;10.00;70.20
15133;DHT22;7667;51.232;17.110;2023-03-01T13:53:44;10.30;67.70
15133;DHT22;7667;51.232;17.110;2023-03-01T13:56:20;11.20;69.00
15133;DHT22;7667;51.232;17.110;2023-03-01T13:59:01;10.60;65.70
15133;DHT22;7667;51.232;17.110;2023-03-01T14:01:33;10.60;67.60
15133;DHT22;7667;51.232;17.110;2023-03-01T14:04:17;10.30;66.90
15133;DHT22;7667;51.232;17.110;2023-03-01T14:06:49;10.80;68.60
15133;DHT22;7667;51.232;17.110;2023-03-01T14:09:21;11.10;65.40
15133;DHT22;7667;51.232;17.110;2023-03-01T14:20:21;10.40;68.20
15133;DHT22;7667;51.232;17.110;2023-03-01T14:22:52;11.90;68.40
15133;DHT22;7667;51.232;17.110;2023-03-01T14:28:17;12.50;60.30
15133;DHT22;7667;51.232;17.110;2023-03-01T14:30:58;12.00;61.40
15133;DHT22;7667;51.232;17.110;2023-03-01T14:33:33;12.90;61.70
15133;DHT22;7667;51.232;17.110;2023-03-01T14:36:12;12.60;61.20
15133;DHT22;7667;51.232;17.110;2023-03-01T14:38:45;11.70;60.20
15133;DHT22;7667;51.232;17.110;2023-03-01T14:41:25;11.60;61.30
15133;DHT22;7667;51.232;17.110;2023-03-01T14:44:06;10.80;62.10
15133;DHT22;7667;51.232;17.110;2023-03-01T14:46:43;10.30;64.00
15133;DHT22;7667;51.232;17.110;2023-03-01T14:49:24;10.60;63.70
15133;DHT22;7667;51.232;17.110;2023-03-01T14:52:06;11.80;63.80
15133;DHT22;7667;51.232;17.110;2023-03-01T14:54:42;12.40;61.60
15133;DHT22;7667;51.232;17.110;2023-03-01T14:57:23;12.70;58.90
15133;DHT22;7667;51.232;17.110;2023-03-01T14:59:55;12.50;59.20
15133;DHT22;7667;51.232;17.110;2023-03-01T15:02:26;12.50;58.40
15133;DHT22;7667;51.232;17.110;2023-03-01T15:04:57;12.40;58.70
15133;DHT22;7667;51.232;17.110;2023-03-01T15:07:39;11.50;59.30
15133;DHT22;7667;51.232;17.110;2023-03-01T15:10:19;11.10;60.70
15133;DHT22;7667;51.232;17.110;2023-03-01T15:12:51;11.20;60.50
15133;DHT22;7667;51.232;17.110;2023-03-01T15:18:22;11.00;60.20
15133;DHT22;7667;51.232;17.110;2023-03-01T15:26:58;11.50;59.50
15133;DHT22;7667;51.232;17.110;2023-03-01T15:29:34;11.50;60.30
15133;DHT22;7667;51.232;17.110;2023-03-01T15:32:35;11.60;59.60
15133;DHT22;7667;51.232;17.110;2023-03-01T15:35:41;11.30;60.30
15133;DHT22;7667;51.232;17.110;2023-03-01T15:41:27;10.30;61.40
15133;DHT22;7667;51.232;17.110;2023-03-01T15:44:00;10.00;62.30
15133;DHT22;7667;51.232;17.110;2023-03-01T15:46:45;9.60;62.80
15133;DHT22;7667;51.232;17.110;2023-03-01T15:49:41;9.30;64.40
15133;DHT22;7667;51.232;17.110;2023-03-01T15:52:39;9.20;66.70
15133;DHT22;7667;51.232;17.110;2023-03-01T15:55:28;8.60;66.80
15133;DHT22;7667;51.232;17.110;2023-03-01T15:58:12;8.20;69.40
15133;DHT22;7667;51.232;17.110;2023-03-01T16:00:41;7.70;71.70
15133;DHT22;7667;51.232;17.110;2023-03-01T16:03:26;7.30;75.20
15133;DHT22;7667;51.232;17.110;2023-03-01T16:05:53;7.00;77.70
15133;DHT22;7667;51.232;17.110;2023-03-01T16:08:21;6.70;79.10
15133;DHT22;7667;51.232;17.110;2023-03-01T16:10:49;6.40;80.90
15133;DHT22;7667;51.232;17.110;2023-03-01T16:13:18;6.20;82.60
15133;DHT22;7667;51.232;17.110;2023-03-01T16:15:46;5.90;84.60
15133;DHT22;7667;51.232;17.110;2023-03-01T16:18:14;5.50;87.40
15133;DHT22;7667;51.232;17.110;2023-03-01T16:20:41;4.90;91.70
15133;DHT22;7667;51.232;17.110;2023-03-01T16:23:11;4.50;99.30
15133;DHT22;7667;51.232;17.110;2023-03-01T16:25:38;4.10;99.90
15133;DHT22;7667;51.232;17.110;2023-03-01T16:28:06;3.70;99.90
15133;DHT22;7667;51.232;17.110;2023-03-01T16:30:38;3.40;99.90
15133;DHT22;7667;51.232;17.110;2023-03-01T16:33:07;3.30;99.90
15133;DHT22;7667;51.232;17.110;2023-03-01T16:35:55;3.10;99.90
15133;DHT22;7667;51.232;17.110;2023-03-01T16:38:23;2.90;99.90
15133;DHT22;7667;51.232;17.110;2023-03-01T16:40:51;2.80;99.90
15133;DHT22;7667;51.232;17.110;2023-03-01T16:43:19;2.70;99.90
15133;DHT22;7667;51.232;17.110;2023-03-01T16:45:47;2.60;99.90
15133;DHT22;7667;51.232;17.110;2023-03-01T16:48:15;2.40;99.90
15133;DHT22;7667;51.232;17.110;2023-03-01T16:50:42;2.30;99.90
15133;DHT22;7667;51.232;17.110;2023-03-01T16:53:10;2.10;99.90
15133;DHT22;7667;51.232;17.110;2023-03-01T16:55:38;2.00;99.90
15133;DHT22;7667;51.232;17.110;2023-03-01T16:58:12;1.90;99.90
15133;DHT22;7667;51.232;17.110;2023-03-01T17:00:39;1.80;99.90
15133;DHT22;7667;51.232;17.110;2023-03-01T17:03:07;1.70;99.90
15133;DHT22;7667;51.232;17.110;2023-03-01T17:05:35;1.60;99.90
15133;DHT22;7667;51.232;17.110;2023-03-01T17:08:02;1.50;99.90
15133;DHT22;7667;51.232;17.110;2023-03-01T17:10:30;1.50;99.90
15133;DHT22;7667;51.232;17.110;2023-03-01T17:12:57;1.40;99.90
15133;DHT22;7667;51.232;17.110;2023-03-01T17:15:25;1.30;99.90
15133;DHT22;7667;51.232;17.110;2023-03-01T17:17:52;1.30;99.90
15133;DHT22;7667;51.232;17.110;2023-03-01T17:20:20;1.20;99.90
15133;DHT22;7667;51.232;17.110;2023-03-01T17:22:47;1.10;99.90
15133;DHT22;7667;51.232;17.110;2023-03-01T17:25:15;1.00;99.90
15133;DHT22;7667;51.232;17.110;2023-03-01T17:27:42;1.00;99.90
15133;DHT22;7667;51.232;17.110;2023-03-01T17:30:12;0.90;99.90
15133;DHT22;7667;51.232;17.110;2023-03-01T17:32:40;0.90;99.90
15133;DHT22;7667;51.232;17.110;2023-03-01T17:35:08;0.80;99.90
15133;DHT22;7667;51.232;17.110;2023-03-01T17:37:41;0.90;99.90
15133;DHT22;7667;51.232;17.110;2023-03-01T17:40:12;0.90;99.90
15133;DHT22;7667;51.232;17.110;2023-03-01T17:42:40;0.90;99.90
15133;DHT22;7667;51.232;17.110;2023-03-01T17:45:08;0.80;99.90
15133;DHT22;7667;51.232;17.110;2023-03-01T17:47:36;0.80;99.90
15133;DHT22;7667;51.232;17.110;2023-03-01T17:50:04;0.80;99.90
15133;DHT22;7667;51.232;17.110;2023-03-01T17:52:32;0.70;99.90
15133;DHT22;7667;51.232;17.110;2023-03-01T17:54:59;0.50;99.90
15133;DHT22;7667;51.232;17.110;2023-03-01T17:57:27;0.50;99.90
15133;DHT22;7667;51.232;17.110;2023-03-01T17:59:54;0.50;99.90
15133;DHT22;7667;51.232;17.110;2023-03-01T18:02:22;0.50;99.90
15133;DHT22;7667;51.232;17.110;2023-03-01T18:04:50;0.50;99.90
15133;DHT22;7667;51.232;17.110;2023-03-01T18:07:17;0.50;99.90
15133;DHT22;7667;51.232;17.110;2023-03-01T18:09:45;0.40;99.90
15133;DHT22;7667;51.232;17.110;2023-03-01T18:12:13;0.20;99.90
15133;DHT22;7667;51.232;17.110;2023-03-01T18:14:40;0.20;99.90
15133;DHT22;7667;51.232;17.110;2023-03-01T18:17:08;0.20;99.90
15133;DHT22;7667;51.232;17.110;2023-03-01T18:19:39;0.20;99.90
15133;DHT22;7667;51.232;17.110;2023-03-01T18:22:10;0.20;99.90